createdAt,value
2022-10-07T00:00:00.016Z,99570.63
2022-10-07T00:02:05.676Z,99572.44
2022-10-07T00:04:10.404Z,99575.88
2022-10-07T00:06:18.043Z,99575.03
2022-10-07T00:08:22.714Z,99578.50
2022-10-07T00:10:27.697Z,99573.28
2022-10-07T00:12:33.571Z,99569.88
2022-10-07T00:14:42.538Z,99564.75
2022-10-07T00:16:47.294Z,99564.75
2022-10-07T00:18:52.099Z,99562.16
2022-10-07T00:20:56.790Z,99557.88
2022-10-07T00:23:01.476Z,99566.66
2022-10-07T00:25:06.440Z,99568.41
2022-10-07T00:27:11.200Z,99564.13
2022-10-07T00:29:15.939Z,99561.59
2022-10-07T00:31:24.914Z,99559.06
2022-10-07T00:33:30.010Z,99554.75
2022-10-07T00:35:37.754Z,99550.47
2022-10-07T00:37:44.293Z,99548.81
2022-10-07T00:39:49.273Z,99547.03
2022-10-07T00:41:55.513Z,99545.41
2022-10-07T00:44:00.272Z,99542.78
2022-10-07T00:46:10.782Z,99550.59
2022-10-07T00:48:20.544Z,99541.94
2022-10-07T00:50:30.714Z,99539.28
2022-10-07T00:52:40.574Z,99528.88
2022-10-07T00:54:46.165Z,99540.13
2022-10-07T00:56:54.076Z,99538.34
2022-10-07T00:59:01.699Z,99530.53
2022-10-07T01:01:08.156Z,99532.22
2022-10-07T01:03:12.956Z,99530.53
2022-10-07T01:05:21.238Z,99525.81
2022-10-07T01:07:26.066Z,99538.13
2022-10-07T01:09:31.030Z,99531.50
2022-10-07T01:11:49.054Z,99533.13
2022-10-07T01:14:04.534Z,99527.00
2022-10-07T01:16:17.457Z,99517.41
2022-10-07T01:18:28.466Z,99512.91
2022-10-07T01:20:41.140Z,99505.88
2022-10-07T01:22:56.077Z,99514.44
2022-10-07T01:25:18.793Z,99507.41
2022-10-07T01:27:29.612Z,99504.72
2022-10-07T01:29:41.216Z,99499.47
2022-10-07T01:31:50.721Z,99496.78
2022-10-07T01:33:57.418Z,99487.34
2022-10-07T01:36:09.573Z,99484.69
2022-10-07T01:38:17.886Z,99479.38
2022-10-07T01:40:27.181Z,99483.75
2022-10-07T01:42:35.237Z,99475.09
2022-10-07T01:44:42.796Z,99477.94
2022-10-07T01:46:49.614Z,99479.06
2022-10-07T01:48:55.035Z,99473.22
2022-10-07T01:51:00.514Z,99482.00
2022-10-07T01:53:17.901Z,99476.69
2022-10-07T01:55:38.329Z,99471.34
2022-10-07T01:57:56.131Z,99466.84
2022-10-07T02:00:12.834Z,99452.91
2022-10-07T02:02:30.727Z,99459.84
2022-10-07T02:04:59.315Z,99456.34
2022-10-07T02:07:17.786Z,99451.13
2022-10-07T02:09:29.346Z,99450.25
2022-10-07T02:11:41.299Z,99456.25
2022-10-07T02:14:00.427Z,99446.69
2022-10-07T02:16:18.794Z,99444.91
2022-10-07T02:18:23.680Z,99448.38
2022-10-07T02:20:34.126Z,99444.09
2022-10-07T02:22:41.728Z,99443.19
2022-10-07T02:24:48.454Z,99437.97
2022-10-07T02:26:56.767Z,99435.34
2022-10-07T02:29:07.719Z,99437.00
2022-10-07T02:31:18.215Z,99436.25
2022-10-07T02:33:27.435Z,99424.13
2022-10-07T02:35:37.681Z,99432.78
2022-10-07T02:37:47.196Z,99432.81
2022-10-07T02:39:52.244Z,99437.13
2022-10-07T02:42:03.689Z,99424.94
2022-10-07T02:44:21.795Z,99426.66
2022-10-07T02:46:30.594Z,99421.44
2022-10-07T02:48:42.238Z,99424.88
2022-10-07T02:50:51.796Z,99423.03
2022-10-07T02:52:58.943Z,99416.00
2022-10-07T02:55:08.649Z,99411.63
2022-10-07T02:57:16.407Z,99403.75
2022-10-07T02:59:25.791Z,99414.00
2022-10-07T03:01:35.381Z,99406.28
2022-10-07T03:03:40.316Z,99409.75
2022-10-07T03:05:45.199Z,99402.84
2022-10-07T03:07:51.293Z,99405.56
2022-10-07T03:09:56.437Z,99406.50
2022-10-07T03:12:01.038Z,99408.44
2022-10-07T03:14:06.309Z,99402.44
2022-10-07T03:16:13.728Z,99398.22
2022-10-07T03:18:29.433Z,99398.38
2022-10-07T03:20:43.060Z,99404.47
2022-10-07T03:22:48.180Z,99403.63
2022-10-07T03:24:55.533Z,99397.56
2022-10-07T03:27:03.073Z,99402.75
2022-10-07T03:29:08.525Z,99403.69
2022-10-07T03:31:16.984Z,99395.91
2022-10-07T03:33:26.791Z,99392.44
2022-10-07T03:35:31.991Z,99395.88
2022-10-07T03:37:37.220Z,99395.88
2022-10-07T03:39:43.680Z,99391.50
2022-10-07T03:41:50.183Z,99390.69
2022-10-07T03:43:59.238Z,99393.38
2022-10-07T03:46:05.369Z,99393.41
2022-10-07T03:48:15.256Z,99391.72
2022-10-07T03:50:20.054Z,99395.38
2022-10-07T03:52:24.843Z,99392.84
2022-10-07T03:54:31.291Z,99385.94
2022-10-07T03:56:36.095Z,99391.94
2022-10-07T03:58:41.173Z,99386.72
2022-10-07T04:00:48.695Z,99383.34
2022-10-07T04:02:53.978Z,99383.38
2022-10-07T04:05:01.123Z,99384.22
2022-10-07T04:07:06.185Z,99382.38
2022-10-07T04:09:11.371Z,99382.25
2022-10-07T04:11:17.912Z,99372.66
2022-10-07T04:13:23.208Z,99369.94
2022-10-07T04:15:29.746Z,99369.06
2022-10-07T04:17:35.717Z,99348.34
2022-10-07T04:19:40.597Z,99351.84
2022-10-07T04:21:47.951Z,99348.25
2022-10-07T04:23:53.176Z,99350.78
2022-10-07T04:25:58.177Z,99348.13
2022-10-07T04:28:04.994Z,99347.16
2022-10-07T04:30:11.373Z,99346.28
2022-10-07T04:32:18.153Z,99348.94
2022-10-07T04:34:23.055Z,99347.97
2022-10-07T04:36:28.610Z,99341.00
2022-10-07T04:38:46.699Z,99340.19
2022-10-07T04:40:53.046Z,99334.06
2022-10-07T04:43:12.615Z,99327.94
2022-10-07T04:45:18.154Z,99325.19
2022-10-07T04:47:22.987Z,99327.81
2022-10-07T04:49:27.943Z,99324.50
2022-10-07T04:51:33.863Z,99333.06
2022-10-07T04:53:40.032Z,99324.44
2022-10-07T04:55:52.003Z,99323.50
2022-10-07T04:57:58.849Z,99322.53
2022-10-07T05:00:03.613Z,99320.72
2022-10-07T05:02:08.722Z,99323.34
2022-10-07T05:04:14.481Z,99316.38
2022-10-07T05:06:19.268Z,99313.72
2022-10-07T05:08:27.161Z,99311.97
2022-10-07T05:10:33.688Z,99311.94
2022-10-07T05:12:41.617Z,99313.50
2022-10-07T05:14:46.809Z,99304.06
2022-10-07T05:16:52.368Z,99307.59
2022-10-07T05:19:00.117Z,99304.13
2022-10-07T05:21:07.942Z,99312.78
2022-10-07T05:23:17.464Z,99305.84
2022-10-07T05:25:22.845Z,99297.94
2022-10-07T05:27:28.029Z,99300.44
2022-10-07T05:29:35.433Z,99296.09
2022-10-07T05:31:40.350Z,99295.25
2022-10-07T05:33:46.235Z,99291.88
2022-10-07T05:35:51.376Z,99291.88
2022-10-07T05:37:56.645Z,99298.91
2022-10-07T05:40:01.816Z,99299.84
2022-10-07T05:42:07.493Z,99287.59
2022-10-07T05:44:20.526Z,99288.25
2022-10-07T05:46:30.553Z,99293.31
2022-10-07T05:48:39.530Z,99290.72
2022-10-07T05:50:50.162Z,99284.50
2022-10-07T05:52:55.069Z,99291.28
2022-10-07T05:55:00.741Z,99288.44
2022-10-07T05:57:05.543Z,99288.25
2022-10-07T05:59:12.002Z,99284.63
2022-10-07T06:01:20.698Z,99282.59
2022-10-07T06:03:29.253Z,99284.03
2022-10-07T06:05:35.565Z,99276.84
2022-10-07T06:07:40.570Z,99270.72
2022-10-07T06:09:59.069Z,99274.03
2022-10-07T06:12:16.548Z,99269.59
2022-10-07T06:14:22.199Z,99266.97
2022-10-07T06:16:27.863Z,99264.28
2022-10-07T06:18:35.850Z,99257.22
2022-10-07T06:20:40.720Z,99255.44
2022-10-07T06:22:45.739Z,99252.72
2022-10-07T06:24:56.588Z,99256.91
2022-10-07T06:27:02.158Z,99262.88
2022-10-07T06:29:08.365Z,99257.53
2022-10-07T06:31:15.348Z,99258.31
2022-10-07T06:33:22.302Z,99257.34
2022-10-07T06:35:29.737Z,99256.59
2022-10-07T06:37:35.702Z,99258.50
2022-10-07T06:39:41.273Z,99255.22
2022-10-07T06:41:47.329Z,99264.72
2022-10-07T06:44:11.791Z,99256.75
2022-10-07T06:46:23.104Z,99259.34
2022-10-07T06:48:29.945Z,99259.31
2022-10-07T06:50:37.492Z,99258.66
2022-10-07T06:52:43.588Z,99257.66
2022-10-07T06:54:48.990Z,99256.84
2022-10-07T06:56:55.597Z,99251.03
2022-10-07T06:59:01.995Z,99250.97
2022-10-07T07:01:15.946Z,99260.28
2022-10-07T07:03:20.892Z,99254.84
2022-10-07T07:05:25.704Z,99254.78
2022-10-07T07:07:33.061Z,99257.09
2022-10-07T07:09:38.489Z,99250.84
2022-10-07T07:11:45.404Z,99242.44
2022-10-07T07:13:57.509Z,99245.78
2022-10-07T07:16:03.710Z,99249.00
2022-10-07T07:18:13.580Z,99243.66
2022-10-07T07:20:18.565Z,99252.00
2022-10-07T07:22:23.431Z,99258.66
2022-10-07T07:24:31.185Z,99245.75
2022-10-07T07:26:36.556Z,99255.06
2022-10-07T07:28:41.798Z,99257.50
2022-10-07T07:30:48.912Z,99245.13
2022-10-07T07:32:54.009Z,99250.34
2022-10-07T07:35:00.830Z,99246.88
2022-10-07T07:37:08.602Z,99247.63
2022-10-07T07:39:20.949Z,99258.16
2022-10-07T07:41:38.868Z,99255.56
2022-10-07T07:43:43.702Z,99253.75
2022-10-07T07:45:48.815Z,99254.41
2022-10-07T07:47:53.690Z,99260.34
2022-10-07T07:49:58.671Z,99253.31
2022-10-07T07:52:08.624Z,99250.53
2022-10-07T07:54:19.089Z,99240.06
2022-10-07T07:56:26.237Z,99249.53
2022-10-07T07:58:33.706Z,99249.47
2022-10-07T08:00:38.511Z,99243.25
2022-10-07T08:02:45.455Z,99244.13
2022-10-07T08:04:54.822Z,99247.63
2022-10-07T08:07:00.896Z,99247.47
2022-10-07T08:09:06.966Z,99241.13
2022-10-07T08:11:12.181Z,99247.09
2022-10-07T08:13:18.195Z,99242.19
2022-10-07T08:15:25.619Z,99246.25
2022-10-07T08:17:31.124Z,99237.28
2022-10-07T08:19:35.926Z,99238.78
2022-10-07T08:21:42.460Z,99240.09
2022-10-07T08:23:56.461Z,99227.56
2022-10-07T08:26:04.150Z,99227.66
2022-10-07T08:28:09.468Z,99225.75
2022-10-07T08:30:15.128Z,99222.91
2022-10-07T08:32:22.477Z,99223.50
2022-10-07T08:34:27.274Z,99231.88
2022-10-07T08:36:34.476Z,99222.41
2022-10-07T08:38:41.562Z,99219.63
2022-10-07T08:40:50.898Z,99226.63
2022-10-07T08:42:55.928Z,99218.25
2022-10-07T08:45:00.784Z,99231.25
2022-10-07T08:47:14.271Z,99233.72
2022-10-07T08:49:27.814Z,99233.38
2022-10-07T08:51:39.359Z,99241.28
2022-10-07T08:53:44.695Z,99228.06
2022-10-07T08:55:54.999Z,99222.56
2022-10-07T08:58:19.742Z,99211.81
2022-10-07T09:00:39.929Z,99216.69
2022-10-07T09:02:58.374Z,99206.66
2022-10-07T09:05:15.515Z,99200.97
2022-10-07T09:07:34.319Z,99198.06
2022-10-07T09:09:43.161Z,99186.47
2022-10-07T09:11:50.729Z,99179.22
2022-10-07T09:14:00.310Z,99167.63
2022-10-07T09:16:09.621Z,99176.97
2022-10-07T09:18:20.728Z,99177.41
2022-10-07T09:20:35.783Z,99177.16
2022-10-07T09:22:42.812Z,99171.31
2022-10-07T09:24:49.213Z,99177.47
2022-10-07T09:26:56.175Z,99164.97
2022-10-07T09:29:02.145Z,99157.84
2022-10-07T09:31:07.173Z,99164.56
2022-10-07T09:33:18.613Z,99156.59
2022-10-07T09:35:26.300Z,99150.56
2022-10-07T09:37:34.209Z,99146.75
2022-10-07T09:39:39.125Z,99143.81
2022-10-07T09:41:47.233Z,99145.13
2022-10-07T09:44:01.926Z,99133.38
2022-10-07T09:46:07.388Z,99137.34
2022-10-07T09:48:23.665Z,99132.69
2022-10-07T09:50:36.531Z,99127.72
2022-10-07T09:52:58.167Z,99126.22
2022-10-07T09:55:37.790Z,99131.28
2022-10-07T09:57:43.696Z,99120.00
2022-10-07T09:59:48.679Z,99124.09
2022-10-07T10:01:55.685Z,99121.19
2022-10-07T10:04:01.274Z,99118.22
2022-10-07T10:06:09.016Z,99112.16
2022-10-07T10:08:28.193Z,99116.28
2022-10-07T10:10:35.406Z,99120.28
2022-10-07T10:12:49.416Z,99116.66
2022-10-07T10:14:55.820Z,99114.69
2022-10-07T10:17:00.687Z,99108.34
2022-10-07T10:19:07.921Z,99103.44
2022-10-07T10:21:30.278Z,99108.09
2022-10-07T10:23:39.998Z,99098.69
2022-10-07T10:26:06.041Z,99100.84
2022-10-07T10:28:17.929Z,99099.81
2022-10-07T10:30:25.276Z,99104.09
2022-10-07T10:32:54.029Z,99104.13
2022-10-07T10:35:05.657Z,99099.34
2022-10-07T10:37:18.531Z,99098.72
2022-10-07T10:39:39.257Z,99100.16
2022-10-07T10:41:51.171Z,99098.09
2022-10-07T10:44:20.736Z,99092.56
2022-10-07T10:46:51.073Z,99078.75
2022-10-07T10:49:02.402Z,99080.22
2022-10-07T10:51:21.452Z,99078.03
2022-10-07T10:53:37.844Z,99073.78
2022-10-07T10:56:06.438Z,99069.19
2022-10-07T10:58:24.140Z,99058.78
2022-10-07T11:00:35.817Z,99066.34
2022-10-07T11:03:00.836Z,99056.88
2022-10-07T11:05:08.830Z,99056.09
2022-10-07T11:07:24.460Z,99055.09
2022-10-07T11:09:33.444Z,99047.59
2022-10-07T11:11:40.792Z,99054.47
2022-10-07T11:13:49.177Z,99048.34
2022-10-07T11:15:58.703Z,99046.94
2022-10-07T11:18:08.325Z,99029.38
2022-10-07T11:20:21.688Z,99029.56
2022-10-07T11:22:40.405Z,99034.81
2022-10-07T11:24:50.841Z,99027.25
2022-10-07T11:27:02.557Z,99026.03
2022-10-07T11:29:21.271Z,99026.47
2022-10-07T11:31:33.530Z,99019.88
2022-10-07T11:33:45.176Z,99020.13
2022-10-07T11:35:55.334Z,99018.00
2022-10-07T11:38:06.139Z,99011.91
2022-10-07T11:40:12.679Z,99004.34
2022-10-07T11:42:25.685Z,99000.19
2022-10-07T11:44:34.687Z,98995.81
2022-10-07T11:46:44.947Z,98993.06
2022-10-07T11:48:54.626Z,98994.50
2022-10-07T11:51:04.897Z,98987.41
2022-10-07T11:53:13.730Z,98979.88
2022-10-07T11:55:25.186Z,98980.72
2022-10-07T11:57:34.831Z,98976.75
2022-10-07T11:59:46.344Z,98975.50
2022-10-07T12:01:56.969Z,98963.28
2022-10-07T12:04:38.980Z,98968.00
2022-10-07T12:07:18.730Z,98959.28
2022-10-07T12:09:53.542Z,98950.72
2022-10-07T12:11:59.607Z,98949.19
2022-10-07T12:14:42.922Z,98943.66
2022-10-07T12:16:57.660Z,98947.50
2022-10-07T12:19:24.047Z,98935.59
2022-10-07T12:21:29.136Z,98928.53
2022-10-07T12:23:51.610Z,98920.94
2022-10-07T12:26:04.909Z,98925.00
2022-10-07T12:28:19.002Z,98919.81
2022-10-07T12:30:44.658Z,98912.56
2022-10-07T12:33:01.236Z,98909.19
2022-10-07T12:35:54.895Z,98907.22
2022-10-07T12:38:05.341Z,98903.72
2022-10-07T12:40:18.120Z,98898.16
2022-10-07T12:42:23.182Z,98897.22
2022-10-07T12:44:34.215Z,98892.81
2022-10-07T12:46:49.425Z,98893.56
2022-10-07T12:49:01.657Z,98888.66
2022-10-07T12:51:09.706Z,98893.41
2022-10-07T12:53:15.311Z,98888.59
2022-10-07T12:55:29.182Z,98880.31
2022-10-07T12:57:36.893Z,98879.91
2022-10-07T12:59:47.555Z,98870.84
2022-10-07T13:02:28.877Z,98867.06
2022-10-07T13:04:53.761Z,98863.03
2022-10-07T13:07:31.314Z,98860.94
2022-10-07T13:10:01.607Z,98854.56
2022-10-07T13:12:18.129Z,98858.41
2022-10-07T13:14:29.395Z,98848.97
2022-10-07T13:16:39.831Z,98849.09
2022-10-07T13:18:55.283Z,98842.13
2022-10-07T13:21:12.680Z,98839.41
2022-10-07T13:23:24.557Z,98841.00
2022-10-07T13:25:32.858Z,98840.03
2022-10-07T13:27:38.715Z,98833.81
2022-10-07T13:29:44.174Z,98833.72
2022-10-07T13:32:05.591Z,98822.34
2022-10-07T13:34:22.786Z,98824.44
2022-10-07T13:36:29.829Z,98823.59
2022-10-07T13:38:34.932Z,98817.38
2022-10-07T13:40:39.986Z,98819.25
2022-10-07T13:42:45.095Z,98811.34
2022-10-07T13:44:50.050Z,98809.38
2022-10-07T13:47:00.183Z,98800.44
2022-10-07T13:49:06.137Z,98798.72
2022-10-07T13:51:27.480Z,98794.22
2022-10-07T13:53:35.042Z,98788.81
2022-10-07T13:55:39.845Z,98785.16
2022-10-07T13:57:44.606Z,98788.63
2022-10-07T13:59:51.772Z,98779.69
2022-10-07T14:01:59.206Z,98772.44
2022-10-07T14:04:10.791Z,98777.03
2022-10-07T14:06:40.629Z,98778.75
2022-10-07T14:08:53.488Z,98779.19
2022-10-07T14:11:03.559Z,98773.38
2022-10-07T14:13:09.827Z,98771.47
2022-10-07T14:15:18.421Z,98770.53
2022-10-07T14:17:31.553Z,98760.66
2022-10-07T14:19:36.427Z,98762.53
2022-10-07T14:21:45.794Z,98761.56
2022-10-07T14:23:50.592Z,98765.72
2022-10-07T14:25:57.860Z,98763.94
2022-10-07T14:28:19.363Z,98758.53
2022-10-07T14:30:29.564Z,98752.22
2022-10-07T14:32:46.994Z,98747.78
2022-10-07T14:35:04.447Z,98755.69
2022-10-07T14:37:13.746Z,98751.38
2022-10-07T14:39:33.477Z,98748.00
2022-10-07T14:41:38.544Z,98744.63
2022-10-07T14:43:44.933Z,98737.97
2022-10-07T14:45:49.638Z,98732.16
2022-10-07T14:47:54.432Z,98732.25
2022-10-07T14:50:01.290Z,98723.28
2022-10-07T14:52:07.114Z,98723.28
2022-10-07T14:54:15.300Z,98718.03
2022-10-07T14:56:26.949Z,98719.63
2022-10-07T14:58:31.704Z,98722.25
2022-10-07T15:00:39.605Z,98718.03
2022-10-07T15:02:45.079Z,98712.75
2022-10-07T15:04:51.226Z,98711.06
2022-10-07T15:06:56.072Z,98709.47
2022-10-07T15:09:00.840Z,98708.72
2022-10-07T15:11:08.616Z,98699.91
2022-10-07T15:13:14.365Z,98706.00
2022-10-07T15:15:19.210Z,98697.16
2022-10-07T15:17:23.987Z,98700.63
2022-10-07T15:19:28.996Z,98694.63
2022-10-07T15:21:33.977Z,98689.25
2022-10-07T15:23:38.710Z,98691.66
2022-10-07T15:25:44.000Z,98681.34
2022-10-07T15:27:51.812Z,98690.84
2022-10-07T15:29:56.568Z,98686.72
2022-10-07T15:32:01.306Z,98685.75
2022-10-07T15:34:07.127Z,98687.56
2022-10-07T15:36:13.237Z,98679.84
2022-10-07T15:38:17.998Z,98675.22
2022-10-07T15:40:22.933Z,98673.53
2022-10-07T15:42:28.206Z,98673.53
2022-10-07T15:44:35.286Z,98668.69
2022-10-07T15:46:40.179Z,98673.19
2022-10-07T15:48:44.954Z,98678.34
2022-10-07T15:50:50.705Z,98675.72
2022-10-07T15:52:55.425Z,98668.78
2022-10-07T15:55:05.092Z,98667.94
2022-10-07T15:57:12.066Z,98666.13
2022-10-07T15:59:17.063Z,98659.06
2022-10-07T16:01:26.547Z,98666.22
2022-10-07T16:03:35.728Z,98662.88
2022-10-07T16:05:40.477Z,98660.53
2022-10-07T16:07:45.240Z,98653.66
2022-10-07T16:09:49.971Z,98657.34
2022-10-07T16:11:54.923Z,98660.09
2022-10-07T16:14:02.094Z,98661.97
2022-10-07T16:16:09.560Z,98654.28
2022-10-07T16:18:16.931Z,98653.66
2022-10-07T16:20:21.665Z,98653.94
2022-10-07T16:22:26.468Z,98651.50
2022-10-07T16:24:35.156Z,98654.25
2022-10-07T16:26:40.402Z,98656.13
2022-10-07T16:28:59.176Z,98653.66
2022-10-07T16:31:04.040Z,98657.47
2022-10-07T16:33:08.843Z,98651.63
2022-10-07T16:35:16.289Z,98658.78
2022-10-07T16:37:21.010Z,98659.81
2022-10-07T16:39:25.936Z,98662.56
2022-10-07T16:41:30.859Z,98658.53
2022-10-07T16:43:35.950Z,98658.81
2022-10-07T16:45:41.717Z,98663.72
2022-10-07T16:47:46.764Z,98663.91
2022-10-07T16:49:52.216Z,98667.59
2022-10-07T16:52:00.537Z,98664.13
2022-10-07T16:54:07.502Z,98670.59
2022-10-07T16:56:12.212Z,98670.91
2022-10-07T16:58:16.992Z,98664.06
2022-10-07T17:00:22.184Z,98669.41
2022-10-07T17:02:30.207Z,98668.66
2022-10-07T17:04:34.974Z,98674.00
2022-10-07T17:06:40.122Z,98674.22
2022-10-07T17:08:48.913Z,98674.31
2022-10-07T17:10:53.989Z,98674.66
2022-10-07T17:12:58.768Z,98675.06
2022-10-07T17:15:03.577Z,98681.47
2022-10-07T17:17:08.505Z,98694.03
2022-10-07T17:19:15.647Z,98687.38
2022-10-07T17:21:20.814Z,98686.72
2022-10-07T17:23:27.051Z,98698.59
2022-10-07T17:25:34.373Z,98695.31
2022-10-07T17:27:39.141Z,98696.41
2022-10-07T17:29:43.872Z,98697.44
2022-10-07T17:31:50.842Z,98695.88
2022-10-07T17:33:55.773Z,98696.91
2022-10-07T17:36:06.876Z,98698.88
2022-10-07T17:38:11.744Z,98705.34
2022-10-07T17:40:16.698Z,98719.66
2022-10-07T17:42:24.157Z,98711.28
2022-10-07T17:44:30.069Z,98708.09
2022-10-07T17:46:36.646Z,98709.97
2022-10-07T17:48:45.062Z,98707.41
2022-10-07T17:50:49.825Z,98711.06
2022-10-07T17:52:54.600Z,98715.56
2022-10-07T17:54:59.540Z,98709.72
2022-10-07T17:57:04.474Z,98712.63
2022-10-07T17:59:12.378Z,98718.91
2022-10-07T18:01:19.608Z,98722.63
2022-10-07T18:03:24.689Z,98721.03
2022-10-07T18:05:29.444Z,98724.78
2022-10-07T18:07:35.155Z,98727.56
2022-10-07T18:09:40.058Z,98726.13
2022-10-07T18:11:57.264Z,98725.47
2022-10-07T18:14:14.424Z,98723.09
2022-10-07T18:16:23.267Z,98725.81
2022-10-07T18:18:30.056Z,98720.63
2022-10-07T18:20:34.772Z,98731.13
2022-10-07T18:22:39.563Z,98731.22
2022-10-07T18:24:46.107Z,98732.09
2022-10-07T18:26:50.824Z,98725.88
2022-10-07T18:28:57.570Z,98724.09
2022-10-07T18:31:02.774Z,98728.50
2022-10-07T18:33:10.280Z,98726.72
2022-10-07T18:35:15.092Z,98728.50
2022-10-07T18:37:19.797Z,98731.31
2022-10-07T18:39:24.676Z,98730.72
2022-10-07T18:41:29.692Z,98725.72
2022-10-07T18:43:35.751Z,98727.91
2022-10-07T18:45:40.604Z,98727.47
2022-10-07T18:47:45.569Z,98735.41
2022-10-07T18:49:55.010Z,98732.03
2022-10-07T18:51:59.734Z,98726.13
2022-10-07T18:54:04.432Z,98729.75
2022-10-07T18:56:11.238Z,98731.50
2022-10-07T18:58:16.252Z,98733.38
2022-10-07T19:00:21.223Z,98735.16
2022-10-07T19:02:25.954Z,98733.47
2022-10-07T19:04:32.667Z,98733.47
2022-10-07T19:06:43.917Z,98740.47
2022-10-07T19:08:49.145Z,98731.09
2022-10-07T19:10:53.686Z,98735.91
2022-10-07T19:13:10.962Z,98729.88
2022-10-07T19:15:15.690Z,98725.41
2022-10-07T19:17:20.474Z,98732.44
2022-10-07T19:19:26.784Z,98730.50
2022-10-07T19:21:31.907Z,98734.97
2022-10-07T19:23:39.052Z,98733.34
2022-10-07T19:25:47.710Z,98739.31
2022-10-07T19:27:52.442Z,98742.50
2022-10-07T19:29:58.461Z,98737.84
2022-10-07T19:32:07.809Z,98729.75
2022-10-07T19:34:14.904Z,98731.38
2022-10-07T19:36:21.892Z,98742.69
2022-10-07T19:38:27.208Z,98738.03
2022-10-07T19:40:40.115Z,98730.09
2022-10-07T19:42:44.850Z,98735.16
2022-10-07T19:44:49.659Z,98741.25
2022-10-07T19:46:54.754Z,98744.81
2022-10-07T19:49:01.206Z,98746.69
2022-10-07T19:51:08.707Z,98744.91
2022-10-07T19:53:14.861Z,98743.13
2022-10-07T19:55:19.858Z,98740.59
2022-10-07T19:57:27.377Z,98739.06
2022-10-07T19:59:32.178Z,98740.25
2022-10-07T20:01:39.506Z,98742.09
2022-10-07T20:03:44.903Z,98741.31
2022-10-07T20:05:49.597Z,98736.34
2022-10-07T20:07:54.670Z,98738.03
2022-10-07T20:10:01.091Z,98733.56
2022-10-07T20:12:06.556Z,98733.63
2022-10-07T20:14:16.319Z,98737.09
2022-10-07T20:16:23.744Z,98735.41
2022-10-07T20:18:28.505Z,98746.75
2022-10-07T20:20:33.501Z,98739.81
2022-10-07T20:22:38.355Z,98738.88
2022-10-07T20:24:43.121Z,98745.22
2022-10-07T20:26:47.941Z,98747.16
2022-10-07T20:28:54.244Z,98745.44
2022-10-07T20:31:05.145Z,98744.63
2022-10-07T20:33:10.008Z,98745.78
2022-10-07T20:35:14.746Z,98735.28
2022-10-07T20:37:19.477Z,98731.00
2022-10-07T20:39:36.792Z,98736.31
2022-10-07T20:41:54.042Z,98739.94
2022-10-07T20:43:59.161Z,98745.09
2022-10-07T20:46:06.281Z,98741.72
2022-10-07T20:48:10.994Z,98746.88
2022-10-07T20:50:16.398Z,98736.31
2022-10-07T20:52:22.956Z,98736.22
2022-10-07T20:54:29.013Z,98738.84
2022-10-07T20:56:34.732Z,98733.69
2022-10-07T20:58:39.542Z,98723.19
2022-10-07T21:00:44.266Z,98729.38
2022-10-07T21:02:51.957Z,98732.16
2022-10-07T21:04:59.134Z,98731.38
2022-10-07T21:07:03.963Z,98731.38
2022-10-07T21:09:09.813Z,98728.09
2022-10-07T21:11:14.586Z,98718.53
2022-10-07T21:13:19.319Z,98723.91
2022-10-07T21:15:24.055Z,98726.63
2022-10-07T21:17:28.909Z,98724.94
2022-10-07T21:19:36.423Z,98733.66
2022-10-07T21:21:41.215Z,98723.16
2022-10-07T21:23:46.002Z,98719.09
2022-10-07T21:25:51.826Z,98726.78
2022-10-07T21:27:56.626Z,98719.88
2022-10-07T21:30:01.365Z,98719.88
2022-10-07T21:32:06.458Z,98717.47
2022-10-07T21:34:11.673Z,98717.53
2022-10-07T21:36:21.008Z,98716.97
2022-10-07T21:38:25.720Z,98720.59
2022-10-07T21:40:32.210Z,98716.25
2022-10-07T21:42:36.886Z,98723.38
2022-10-07T21:44:41.592Z,98716.56
2022-10-07T21:46:46.758Z,98713.94
2022-10-07T21:48:52.200Z,98715.56
2022-10-07T21:50:57.580Z,98709.47
2022-10-07T21:53:04.989Z,98712.09
2022-10-07T21:55:10.413Z,98701.72
2022-10-07T21:57:15.274Z,98708.03
2022-10-07T21:59:19.958Z,98713.44
2022-10-07T22:01:26.447Z,98710.97
2022-10-07T22:03:31.173Z,98709.28
2022-10-07T22:05:36.285Z,98719.81
2022-10-07T22:07:53.464Z,98710.19
2022-10-07T22:10:01.338Z,98713.66
2022-10-07T22:12:06.049Z,98717.31
2022-10-07T22:14:12.756Z,98708.34
2022-10-07T22:16:20.728Z,98704.63
2022-10-07T22:18:25.602Z,98708.03
2022-10-07T22:20:30.334Z,98698.47
2022-10-07T22:22:35.252Z,98694.31
2022-10-07T22:24:40.050Z,98690.94
2022-10-07T22:26:51.400Z,98694.47
2022-10-07T22:28:57.243Z,98692.25
2022-10-07T22:31:02.048Z,98694.94
2022-10-07T22:33:06.879Z,98695.94
2022-10-07T22:35:30.756Z,98697.91
2022-10-07T22:37:35.443Z,98690.31
2022-10-07T22:39:41.211Z,98692.09
2022-10-07T22:41:48.694Z,98692.94
2022-10-07T22:43:53.823Z,98689.53
2022-10-07T22:45:59.702Z,98682.44
2022-10-07T22:48:04.561Z,98676.94
2022-10-07T22:50:10.630Z,98676.88
2022-10-07T22:52:15.381Z,98674.25
2022-10-07T22:54:20.075Z,98672.38
2022-10-07T22:56:26.102Z,98676.53
2022-10-07T22:58:33.397Z,98685.75
2022-10-07T23:00:38.345Z,98675.13
2022-10-07T23:02:44.661Z,98676.69
2022-10-07T23:04:49.747Z,98678.19
2022-10-07T23:06:54.444Z,98668.38
2022-10-07T23:08:59.423Z,98672.72
2022-10-07T23:11:05.715Z,98664.09
2022-10-07T23:13:10.448Z,98668.56
2022-10-07T23:15:19.724Z,98659.00
2022-10-07T23:17:24.838Z,98660.94
2022-10-07T23:19:30.190Z,98662.19
2022-10-07T23:21:37.538Z,98664.13
2022-10-07T23:23:44.122Z,98659.88
2022-10-07T23:25:48.980Z,98662.56
2022-10-07T23:27:54.234Z,98666.22
2022-10-07T23:29:58.685Z,98671.66
2022-10-07T23:32:06.054Z,98658.63
2022-10-07T23:34:13.940Z,98667.25
2022-10-07T23:36:20.177Z,98665.34
2022-10-07T23:38:26.282Z,98662.66
2022-10-07T23:40:30.958Z,98656.41
2022-10-07T23:42:35.778Z,98654.56
2022-10-07T23:44:40.597Z,98657.88
2022-10-07T23:46:45.463Z,98650.25
2022-10-07T23:48:53.210Z,98650.34
2022-10-07T23:50:58.100Z,98651.34
2022-10-07T23:53:02.949Z,98637.59
2022-10-07T23:55:10.344Z,98642.91
2022-10-07T23:57:15.094Z,98644.00
2022-10-07T23:59:20.144Z,98638.06
